sensor_id;sensor_type;location;lat;lon;timestamp;temperature;humidity
56322;DHT22;42227;6.376;-10.782;2023-02-18T00:00:12;27.90;99.90
56322;DHT22;42227;6.376;-10.782;2023-02-18T00:02:41;27.90;99.90
56322;DHT22;42227;6.376;-10.782;2023-02-18T00:05:09;27.90;99.90
56322;DHT22;42227;6.376;-10.782;2023-02-18T00:07:40;27.80;99.90
56322;DHT22;42227;6.376;-10.782;2023-02-18T00:10:13;27.80;99.90
56322;DHT22;42227;6.376;-10.782;2023-02-18T00:12:42;27.70;99.90
56322;DHT22;42227;6.376;-10.782;2023-02-18T00:15:13;27.50;99.90
56322;DHT22;42227;6.376;-10.782;2023-02-18T00:17:41;27.50;99.90
56322;DHT22;42227;6.376;-10.782;2023-02-18T00:20:10;27.40;99.90
56322;DHT22;42227;6.376;-10.782;2023-02-18T00:22:38;27.40;99.90
56322;DHT22;42227;6.376;-10.782;2023-02-18T00:25:07;27.30;99.90
56322;DHT22;42227;6.376;-10.782;2023-02-18T00:27:35;27.40;99.90
56322;DHT22;42227;6.376;-10.782;2023-02-18T00:30:04;27.50;99.90
56322;DHT22;42227;6.376;-10.782;2023-02-18T00:32:44;27.50;99.90
56322;DHT22;42227;6.376;-10.782;2023-02-18T00:35:13;27.40;99.90
56322;DHT22;42227;6.376;-10.782;2023-02-18T00:37:43;27.30;99.90
56322;DHT22;42227;6.376;-10.782;2023-02-18T00:40:12;27.30;99.90
56322;DHT22;42227;6.376;-10.782;2023-02-18T00:42:40;27.40;99.90
56322;DHT22;42227;6.376;-10.782;2023-02-18T00:45:08;27.50;99.90
56322;DHT22;42227;6.376;-10.782;2023-02-18T00:47:37;27.60;99.90
56322;DHT22;42227;6.376;-10.782;2023-02-18T00:50:06;27.50;99.90
56322;DHT22;42227;6.376;-10.782;2023-02-18T00:52:34;27.50;99.90
56322;DHT22;42227;6.376;-10.782;2023-02-18T00:55:03;27.60;99.90
56322;DHT22;42227;6.376;-10.782;2023-02-18T00:57:32;27.60;99.90
56322;DHT22;42227;6.376;-10.782;2023-02-18T01:00:01;27.50;99.90
56322;DHT22;42227;6.376;-10.782;2023-02-18T01:02:29;27.50;99.90
56322;DHT22;42227;6.376;-10.782;2023-02-18T01:04:58;27.50;99.90
56322;DHT22;42227;6.376;-10.782;2023-02-18T01:07:26;27.50;99.90
56322;DHT22;42227;6.376;-10.782;2023-02-18T01:09:55;27.50;99.90
56322;DHT22;42227;6.376;-10.782;2023-02-18T01:12:23;27.50;99.90
56322;DHT22;42227;6.376;-10.782;2023-02-18T01:14:51;27.40;99.90
56322;DHT22;42227;6.376;-10.782;2023-02-18T01:17:20;27.40;99.90
56322;DHT22;42227;6.376;-10.782;2023-02-18T01:19:48;27.30;99.90
56322;DHT22;42227;6.376;-10.782;2023-02-18T01:22:16;27.30;99.90
56322;DHT22;42227;6.376;-10.782;2023-02-18T01:24:45;27.20;99.90
56322;DHT22;42227;6.376;-10.782;2023-02-18T01:27:13;27.10;99.90
56322;DHT22;42227;6.376;-10.782;2023-02-18T01:29:42;27.10;99.90
56322;DHT22;42227;6.376;-10.782;2023-02-18T01:32:10;27.00;99.90
56322;DHT22;42227;6.376;-10.782;2023-02-18T01:34:43;27.10;99.90
56322;DHT22;42227;6.376;-10.782;2023-02-18T01:37:14;27.10;99.90
56322;DHT22;42227;6.376;-10.782;2023-02-18T01:39:46;27.10;99.90
56322;DHT22;42227;6.376;-10.782;2023-02-18T01:42:21;27.20;99.90
56322;DHT22;42227;6.376;-10.782;2023-02-18T01:44:51;27.00;99.90
56322;DHT22;42227;6.376;-10.782;2023-02-18T01:47:20;26.80;99.90
56322;DHT22;42227;6.376;-10.782;2023-02-18T01:49:52;26.70;99.90
56322;DHT22;42227;6.376;-10.782;2023-02-18T01:52:24;26.60;99.90
56322;DHT22;42227;6.376;-10.782;2023-02-18T01:54:55;26.70;99.90
56322;DHT22;42227;6.376;-10.782;2023-02-18T01:57:30;26.80;99.90
56322;DHT22;42227;6.376;-10.782;2023-02-18T02:00:08;26.80;99.90
56322;DHT22;42227;6.376;-10.782;2023-02-18T02:02:50;26.90;99.90
56322;DHT22;42227;6.376;-10.782;2023-02-18T02:05:21;26.80;99.90
56322;DHT22;42227;6.376;-10.782;2023-02-18T02:07:51;26.80;99.90
56322;DHT22;42227;6.376;-10.782;2023-02-18T02:10:21;26.80;99.90
56322;DHT22;42227;6.376;-10.782;2023-02-18T02:13:16;26.90;99.90
56322;DHT22;42227;6.376;-10.782;2023-02-18T02:21:34;26.70;99.90
56322;DHT22;42227;6.376;-10.782;2023-02-18T02:24:36;26.80;99.90
56322;DHT22;42227;6.376;-10.782;2023-02-18T02:36:52;26.40;99.90
56322;DHT22;42227;6.376;-10.782;2023-02-18T02:39:43;26.30;99.90
56322;DHT22;42227;6.376;-10.782;2023-02-18T02:42:34;26.30;99.90
56322;DHT22;42227;6.376;-10.782;2023-02-18T02:48:26;26.10;99.90
56322;DHT22;42227;6.376;-10.782;2023-02-18T02:53:38;26.30;99.90
56322;DHT22;42227;6.376;-10.782;2023-02-18T02:56:21;26.50;99.90
56322;DHT22;42227;6.376;-10.782;2023-02-18T02:59:04;26.30;99.90
56322;DHT22;42227;6.376;-10.782;2023-02-18T03:04:38;26.00;99.90
56322;DHT22;42227;6.376;-10.782;2023-02-18T03:07:32;26.10;99.90
56322;DHT22;42227;6.376;-10.782;2023-02-18T03:10:35;26.20;99.90
56322;DHT22;42227;6.376;-10.782;2023-02-18T03:16:16;26.30;99.90
56322;DHT22;42227;6.376;-10.782;2023-02-18T03:18:59;26.30;99.90
56322;DHT22;42227;6.376;-10.782;2023-02-18T03:21:32;26.20;99.90
56322;DHT22;42227;6.376;-10.782;2023-02-18T03:24:17;26.30;99.90
56322;DHT22;42227;6.376;-10.782;2023-02-18T03:27:00;26.30;99.90
56322;DHT22;42227;6.376;-10.782;2023-02-18T03:29:32;26.30;99.90
56322;DHT22;42227;6.376;-10.782;2023-02-18T03:32:16;26.30;99.90
56322;DHT22;42227;6.376;-10.782;2023-02-18T03:34:49;26.30;99.90
56322;DHT22;42227;6.376;-10.782;2023-02-18T03:37:19;26.20;99.90
56322;DHT22;42227;6.376;-10.782;2023-02-18T03:39:56;26.20;99.90
56322;DHT22;42227;6.376;-10.782;2023-02-18T03:42:27;26.20;99.90
56322;DHT22;42227;6.376;-10.782;2023-02-18T03:44:56;26.10;99.90
56322;DHT22;42227;6.376;-10.782;2023-02-18T03:47:25;25.90;99.90
56322;DHT22;42227;6.376;-10.782;2023-02-18T03:49:56;25.80;99.90
56322;DHT22;42227;6.376;-10.782;2023-02-18T03:52:27;25.80;99.90
56322;DHT22;42227;6.376;-10.782;2023-02-18T03:54:56;25.70;99.90
56322;DHT22;42227;6.376;-10.782;2023-02-18T03:57:24;25.60;99.90
56322;DHT22;42227;6.376;-10.782;2023-02-18T03:59:52;25.60;99.90
56322;DHT22;42227;6.376;-10.782;2023-02-18T04:02:21;25.60;99.90
56322;DHT22;42227;6.376;-10.782;2023-02-18T04:04:49;25.60;99.90
56322;DHT22;42227;6.376;-10.782;2023-02-18T04:07:17;25.80;99.90
56322;DHT22;42227;6.376;-10.782;2023-02-18T04:09:45;25.80;99.90
56322;DHT22;42227;6.376;-10.782;2023-02-18T04:12:14;25.70;99.90
56322;DHT22;42227;6.376;-10.782;2023-02-18T04:14:42;25.80;99.90
56322;DHT22;42227;6.376;-10.782;2023-02-18T04:17:11;25.80;99.90
56322;DHT22;42227;6.376;-10.782;2023-02-18T04:19:39;25.70;99.90
56322;DHT22;42227;6.376;-10.782;2023-02-18T04:22:07;25.80;99.90
56322;DHT22;42227;6.376;-10.782;2023-02-18T04:24:36;26.10;99.90
56322;DHT22;42227;6.376;-10.782;2023-02-18T04:27:04;26.30;99.90
56322;DHT22;42227;6.376;-10.782;2023-02-18T04:29:32;26.40;99.90
56322;DHT22;42227;6.376;-10.782;2023-02-18T04:32:00;26.50;99.90
56322;DHT22;42227;6.376;-10.782;2023-02-18T04:34:29;26.50;99.90
56322;DHT22;42227;6.376;-10.782;2023-02-18T04:36:57;26.50;99.90
56322;DHT22;42227;6.376;-10.782;2023-02-18T04:39:26;26.30;99.90
56322;DHT22;42227;6.376;-10.782;2023-02-18T04:41:54;26.40;99.90
56322;DHT22;42227;6.376;-10.782;2023-02-18T04:44:22;26.40;99.90
56322;DHT22;42227;6.376;-10.782;2023-02-18T04:46:51;26.30;99.90
56322;DHT22;42227;6.376;-10.782;2023-02-18T04:49:19;26.30;99.90
56322;DHT22;42227;6.376;-10.782;2023-02-18T04:51:47;26.30;99.90
56322;DHT22;42227;6.376;-10.782;2023-02-18T04:54:15;26.30;99.90
56322;DHT22;42227;6.376;-10.782;2023-02-18T04:56:44;26.20;99.90
56322;DHT22;42227;6.376;-10.782;2023-02-18T04:59:12;26.20;99.90
56322;DHT22;42227;6.376;-10.782;2023-02-18T05:01:40;26.30;99.90
56322;DHT22;42227;6.376;-10.782;2023-02-18T05:04:08;26.40;99.90
56322;DHT22;42227;6.376;-10.782;2023-02-18T05:06:37;26.10;99.90
56322;DHT22;42227;6.376;-10.782;2023-02-18T05:09:14;26.10;99.90
56322;DHT22;42227;6.376;-10.782;2023-02-18T05:11:43;25.90;99.90
56322;DHT22;42227;6.376;-10.782;2023-02-18T05:14:20;25.90;99.90
56322;DHT22;42227;6.376;-10.782;2023-02-18T05:16:49;25.90;99.90
56322;DHT22;42227;6.376;-10.782;2023-02-18T05:19:21;25.60;99.90
56322;DHT22;42227;6.376;-10.782;2023-02-18T05:21:52;25.50;99.90
56322;DHT22;42227;6.376;-10.782;2023-02-18T05:24:24;25.30;99.90
56322;DHT22;42227;6.376;-10.782;2023-02-18T05:26:57;25.40;99.90
56322;DHT22;42227;6.376;-10.782;2023-02-18T05:29:28;25.70;99.90
56322;DHT22;42227;6.376;-10.782;2023-02-18T05:32:00;25.90;99.90
56322;DHT22;42227;6.376;-10.782;2023-02-18T05:34:48;25.90;99.90
56322;DHT22;42227;6.376;-10.782;2023-02-18T05:37:16;25.80;99.90
56322;DHT22;42227;6.376;-10.782;2023-02-18T05:39:48;25.80;99.90
56322;DHT22;42227;6.376;-10.782;2023-02-18T05:42:17;25.80;99.90
56322;DHT22;42227;6.376;-10.782;2023-02-18T05:44:48;25.70;99.90
56322;DHT22;42227;6.376;-10.782;2023-02-18T05:47:17;25.90;99.90
56322;DHT22;42227;6.376;-10.782;2023-02-18T05:49:51;26.00;99.90
56322;DHT22;42227;6.376;-10.782;2023-02-18T05:52:35;26.00;99.90
56322;DHT22;42227;6.376;-10.782;2023-02-18T05:55:06;26.10;99.90
56322;DHT22;42227;6.376;-10.782;2023-02-18T05:57:35;26.30;99.90
56322;DHT22;42227;6.376;-10.782;2023-02-18T06:00:15;26.20;99.90
56322;DHT22;42227;6.376;-10.782;2023-02-18T06:02:59;26.10;99.90
56322;DHT22;42227;6.376;-10.782;2023-02-18T06:05:31;26.10;99.90
56322;DHT22;42227;6.376;-10.782;2023-02-18T06:08:04;26.10;99.90
56322;DHT22;42227;6.376;-10.782;2023-02-18T06:10:39;26.20;99.90
56322;DHT22;42227;6.376;-10.782;2023-02-18T06:13:17;26.10;99.90
56322;DHT22;42227;6.376;-10.782;2023-02-18T06:15:48;26.10;99.90
56322;DHT22;42227;6.376;-10.782;2023-02-18T06:18:17;26.10;99.90
56322;DHT22;42227;6.376;-10.782;2023-02-18T06:20:51;26.10;99.90
56322;DHT22;42227;6.376;-10.782;2023-02-18T06:23:19;26.00;99.90
56322;DHT22;42227;6.376;-10.782;2023-02-18T06:25:48;25.70;99.90
56322;DHT22;42227;6.376;-10.782;2023-02-18T06:28:17;25.50;99.90
56322;DHT22;42227;6.376;-10.782;2023-02-18T06:30:46;25.50;99.90
56322;DHT22;42227;6.376;-10.782;2023-02-18T06:33:14;25.50;99.90
56322;DHT22;42227;6.376;-10.782;2023-02-18T06:35:55;25.40;99.90
56322;DHT22;42227;6.376;-10.782;2023-02-18T06:38:24;25.40;99.90
56322;DHT22;42227;6.376;-10.782;2023-02-18T06:41:01;25.40;99.90
56322;DHT22;42227;6.376;-10.782;2023-02-18T06:43:36;25.40;99.90
56322;DHT22;42227;6.376;-10.782;2023-02-18T06:46:13;25.40;99.90
56322;DHT22;42227;6.376;-10.782;2023-02-18T06:48:42;25.50;99.90
56322;DHT22;42227;6.376;-10.782;2023-02-18T06:51:10;25.60;99.90
56322;DHT22;42227;6.376;-10.782;2023-02-18T06:53:41;25.70;99.90
56322;DHT22;42227;6.376;-10.782;2023-02-18T06:56:10;25.50;99.90
56322;DHT22;42227;6.376;-10.782;2023-02-18T06:58:39;25.30;99.90
56322;DHT22;42227;6.376;-10.782;2023-02-18T07:01:08;25.30;99.90
56322;DHT22;42227;6.376;-10.782;2023-02-18T07:03:36;25.20;99.90
56322;DHT22;42227;6.376;-10.782;2023-02-18T07:06:05;25.10;99.90
56322;DHT22;42227;6.376;-10.782;2023-02-18T07:08:34;25.30;99.90
56322;DHT22;42227;6.376;-10.782;2023-02-18T07:11:03;25.30;99.90
56322;DHT22;42227;6.376;-10.782;2023-02-18T07:13:32;25.50;99.90
56322;DHT22;42227;6.376;-10.782;2023-02-18T07:16:00;25.60;99.90
56322;DHT22;42227;6.376;-10.782;2023-02-18T07:18:30;25.70;99.90
56322;DHT22;42227;6.376;-10.782;2023-02-18T07:20:59;25.70;99.90
56322;DHT22;42227;6.376;-10.782;2023-02-18T07:23:28;25.60;99.90
56322;DHT22;42227;6.376;-10.782;2023-02-18T07:26:08;25.70;99.90
56322;DHT22;42227;6.376;-10.782;2023-02-18T07:28:37;25.60;99.90
56322;DHT22;42227;6.376;-10.782;2023-02-18T07:31:06;25.60;99.90
56322;DHT22;42227;6.376;-10.782;2023-02-18T07:33:35;25.50;99.90
56322;DHT22;42227;6.376;-10.782;2023-02-18T07:36:04;25.70;99.90
56322;DHT22;42227;6.376;-10.782;2023-02-18T07:38:33;25.90;99.90
56322;DHT22;42227;6.376;-10.782;2023-02-18T07:41:05;26.20;99.90
56322;DHT22;42227;6.376;-10.782;2023-02-18T07:43:37;26.50;99.90
56322;DHT22;42227;6.376;-10.782;2023-02-18T07:46:06;26.70;99.90
56322;DHT22;42227;6.376;-10.782;2023-02-18T07:48:35;27.00;99.90
56322;DHT22;42227;6.376;-10.782;2023-02-18T07:51:08;27.40;99.90
56322;DHT22;42227;6.376;-10.782;2023-02-18T07:53:37;27.90;99.90
56322;DHT22;42227;6.376;-10.782;2023-02-18T07:56:06;28.00;99.90
56322;DHT22;42227;6.376;-10.782;2023-02-18T07:58:37;28.20;99.90
56322;DHT22;42227;6.376;-10.782;2023-02-18T08:01:10;28.70;99.90
56322;DHT22;42227;6.376;-10.782;2023-02-18T08:03:39;27.90;99.90
56322;DHT22;42227;6.376;-10.782;2023-02-18T08:06:12;29.00;99.90
56322;DHT22;42227;6.376;-10.782;2023-02-18T08:08:42;30.10;99.90
56322;DHT22;42227;6.376;-10.782;2023-02-18T08:11:11;30.30;99.90
56322;DHT22;42227;6.376;-10.782;2023-02-18T08:13:46;30.50;99.90
56322;DHT22;42227;6.376;-10.782;2023-02-18T08:16:16;30.80;99.90
56322;DHT22;42227;6.376;-10.782;2023-02-18T08:18:45;31.20;99.90
56322;DHT22;42227;6.376;-10.782;2023-02-18T08:21:15;31.70;99.90
56322;DHT22;42227;6.376;-10.782;2023-02-18T08:23:43;31.80;99.90
56322;DHT22;42227;6.376;-10.782;2023-02-18T08:26:12;31.90;99.90
56322;DHT22;42227;6.376;-10.782;2023-02-18T08:28:42;33.00;99.90
56322;DHT22;42227;6.376;-10.782;2023-02-18T08:31:25;33.30;99.90
56322;DHT22;42227;6.376;-10.782;2023-02-18T08:33:55;33.30;99.90
56322;DHT22;42227;6.376;-10.782;2023-02-18T08:36:24;33.60;99.90
56322;DHT22;42227;6.376;-10.782;2023-02-18T08:38:53;34.30;99.90
56322;DHT22;42227;6.376;-10.782;2023-02-18T08:41:22;34.20;99.90
56322;DHT22;42227;6.376;-10.782;2023-02-18T08:43:50;35.20;99.80
56322;DHT22;42227;6.376;-10.782;2023-02-18T08:46:18;35.30;99.20
56322;DHT22;42227;6.376;-10.782;2023-02-18T08:49:02;35.20;99.30
56322;DHT22;42227;6.376;-10.782;2023-02-18T08:51:30;35.40;98.10
56322;DHT22;42227;6.376;-10.782;2023-02-18T08:53:58;35.80;97.50
56322;DHT22;42227;6.376;-10.782;2023-02-18T08:56:26;36.50;96.60
56322;DHT22;42227;6.376;-10.782;2023-02-18T08:58:55;36.40;96.20
56322;DHT22;42227;6.376;-10.782;2023-02-18T09:01:23;36.60;96.00
56322;DHT22;42227;6.376;-10.782;2023-02-18T09:03:51;37.30;94.70
56322;DHT22;42227;6.376;-10.782;2023-02-18T09:06:20;37.90;92.60
56322;DHT22;42227;6.376;-10.782;2023-02-18T09:08:48;38.20;92.10
56322;DHT22;42227;6.376;-10.782;2023-02-18T09:11:17;36.20;94.40
56322;DHT22;42227;6.376;-10.782;2023-02-18T09:13:46;33.80;99.40
56322;DHT22;42227;6.376;-10.782;2023-02-18T09:16:16;32.60;99.90
56322;DHT22;42227;6.376;-10.782;2023-02-18T09:18:46;32.20;99.90
56322;DHT22;42227;6.376;-10.782;2023-02-18T09:21:15;32.10;99.90
56322;DHT22;42227;6.376;-10.782;2023-02-18T09:23:44;32.10;99.90
56322;DHT22;42227;6.376;-10.782;2023-02-18T09:26:14;31.60;99.90
56322;DHT22;42227;6.376;-10.782;2023-02-18T09:28:43;32.00;99.90
56322;DHT22;42227;6.376;-10.782;2023-02-18T09:31:13;32.10;99.90
56322;DHT22;42227;6.376;-10.782;2023-02-18T09:33:45;32.30;99.90
56322;DHT22;42227;6.376;-10.782;2023-02-18T09:36:14;32.40;99.90
56322;DHT22;42227;6.376;-10.782;2023-02-18T09:38:44;31.60;99.90
56322;DHT22;42227;6.376;-10.782;2023-02-18T09:41:42;31.40;99.90
56322;DHT22;42227;6.376;-10.782;2023-02-18T09:46:58;31.50;99.90
56322;DHT22;42227;6.376;-10.782;2023-02-18T09:49:34;32.00;99.90
56322;DHT22;42227;6.376;-10.782;2023-02-18T09:54:38;32.60;99.90
56322;DHT22;42227;6.376;-10.782;2023-02-18T10:00:05;32.00;99.90
56322;DHT22;42227;6.376;-10.782;2023-02-18T10:02:48;32.20;99.90
56322;DHT22;42227;6.376;-10.782;2023-02-18T10:05:17;33.00;99.90
56322;DHT22;42227;6.376;-10.782;2023-02-18T10:07:47;33.20;98.50
56322;DHT22;42227;6.376;-10.782;2023-02-18T10:10:40;33.20;98.80
56322;DHT22;42227;6.376;-10.782;2023-02-18T10:13:30;33.20;98.90
56322;DHT22;42227;6.376;-10.782;2023-02-18T10:15:59;33.20;99.60
56322;DHT22;42227;6.376;-10.782;2023-02-18T10:18:34;33.20;98.20
56322;DHT22;42227;6.376;-10.782;2023-02-18T10:21:28;32.90;99.30
56322;DHT22;42227;6.376;-10.782;2023-02-18T10:24:13;32.70;99.20
56322;DHT22;42227;6.376;-10.782;2023-02-18T10:26:44;33.00;99.10
56322;DHT22;42227;6.376;-10.782;2023-02-18T10:29:15;33.40;98.60
56322;DHT22;42227;6.376;-10.782;2023-02-18T10:38:19;33.20;98.10
56322;DHT22;42227;6.376;-10.782;2023-02-18T10:44:01;33.60;97.70
56322;DHT22;42227;6.376;-10.782;2023-02-18T10:49:56;33.30;98.00
56322;DHT22;42227;6.376;-10.782;2023-02-18T10:52:44;33.90;96.20
56322;DHT22;42227;6.376;-10.782;2023-02-18T10:55:16;34.30;95.80
56322;DHT22;42227;6.376;-10.782;2023-02-18T10:57:51;34.20;96.00
56322;DHT22;42227;6.376;-10.782;2023-02-18T11:00:22;34.30;96.00
56322;DHT22;42227;6.376;-10.782;2023-02-18T11:03:15;34.40;95.80
56322;DHT22;42227;6.376;-10.782;2023-02-18T11:05:46;34.20;96.50
56322;DHT22;42227;6.376;-10.782;2023-02-18T11:08:41;34.10;96.30
56322;DHT22;42227;6.376;-10.782;2023-02-18T11:11:47;34.20;96.30
56322;DHT22;42227;6.376;-10.782;2023-02-18T11:14:43;34.00;97.60
56322;DHT22;42227;6.376;-10.782;2023-02-18T11:17:31;34.00;97.30
56322;DHT22;42227;6.376;-10.782;2023-02-18T11:20:04;33.80;97.00
56322;DHT22;42227;6.376;-10.782;2023-02-18T11:22:46;33.90;97.00
56322;DHT22;42227;6.376;-10.782;2023-02-18T11:25:30;33.80;97.30
56322;DHT22;42227;6.376;-10.782;2023-02-18T11:30:43;33.70;97.50
56322;DHT22;42227;6.376;-10.782;2023-02-18T11:33:20;33.90;97.40
56322;DHT22;42227;6.376;-10.782;2023-02-18T11:35:56;34.10;97.40
56322;DHT22;42227;6.376;-10.782;2023-02-18T11:38:40;33.40;98.20
56322;DHT22;42227;6.376;-10.782;2023-02-18T11:41:16;33.60;98.70
56322;DHT22;42227;6.376;-10.782;2023-02-18T11:43:50;33.70;98.70
56322;DHT22;42227;6.376;-10.782;2023-02-18T11:46:22;33.40;98.50
56322;DHT22;42227;6.376;-10.782;2023-02-18T11:48:51;33.90;97.40
56322;DHT22;42227;6.376;-10.782;2023-02-18T11:51:29;33.60;97.30
56322;DHT22;42227;6.376;-10.782;2023-02-18T11:54:21;33.60;98.20
56322;DHT22;42227;6.376;-10.782;2023-02-18T11:57:00;33.50;99.60
56322;DHT22;42227;6.376;-10.782;2023-02-18T11:59:32;33.60;99.30
56322;DHT22;42227;6.376;-10.782;2023-02-18T12:02:35;33.50;98.70
56322;DHT22;42227;6.376;-10.782;2023-02-18T12:05:21;33.00;98.70
56322;DHT22;42227;6.376;-10.782;2023-02-18T12:11:02;33.00;99.40
56322;DHT22;42227;6.376;-10.782;2023-02-18T12:13:51;32.90;99.40
56322;DHT22;42227;6.376;-10.782;2023-02-18T12:38:31;34.00;99.40
56322;DHT22;42227;6.376;-10.782;2023-02-18T12:52:19;33.90;97.10
56322;DHT22;42227;6.376;-10.782;2023-02-18T12:57:47;33.10;97.40
56322;DHT22;42227;6.376;-10.782;2023-02-18T13:00:48;32.70;98.50
56322;DHT22;42227;6.376;-10.782;2023-02-18T13:06:56;32.50;99.70
56322;DHT22;42227;6.376;-10.782;2023-02-18T13:09:46;32.90;99.00
56322;DHT22;42227;6.376;-10.782;2023-02-18T13:12:44;33.10;99.60
56322;DHT22;42227;6.376;-10.782;2023-02-18T13:15:44;33.30;98.10
56322;DHT22;42227;6.376;-10.782;2023-02-18T13:18:15;33.60;98.70
56322;DHT22;42227;6.376;-10.782;2023-02-18T13:20:50;33.40;98.50
56322;DHT22;42227;6.376;-10.782;2023-02-18T13:23:22;33.40;97.40
56322;DHT22;42227;6.376;-10.782;2023-02-18T13:25:57;33.20;98.50
56322;DHT22;42227;6.376;-10.782;2023-02-18T13:34:54;33.10;98.60
56322;DHT22;42227;6.376;-10.782;2023-02-18T13:38:43;33.10;99.90
56322;DHT22;42227;6.376;-10.782;2023-02-18T13:40:43;33.60;98.90
56322;DHT22;42227;6.376;-10.782;2023-02-18T13:51:07;33.20;97.60
56322;DHT22;42227;6.376;-10.782;2023-02-18T13:53:39;33.40;97.50
56322;DHT22;42227;6.376;-10.782;2023-02-18T13:56:51;33.40;99.40
56322;DHT22;42227;6.376;-10.782;2023-02-18T13:59:55;33.60;98.60
56322;DHT22;42227;6.376;-10.782;2023-02-18T14:04:57;33.90;96.60
56322;DHT22;42227;6.376;-10.782;2023-02-18T14:20:45;33.90;98.10
56322;DHT22;42227;6.376;-10.782;2023-02-18T14:25:54;33.70;98.70
56322;DHT22;42227;6.376;-10.782;2023-02-18T14:31:03;33.70;98.80
56322;DHT22;42227;6.376;-10.782;2023-02-18T14:33:34;33.50;99.90
56322;DHT22;42227;6.376;-10.782;2023-02-18T14:44:41;33.50;98.00
56322;DHT22;42227;6.376;-10.782;2023-02-18T14:50:18;33.50;98.90
56322;DHT22;42227;6.376;-10.782;2023-02-18T14:52:52;33.30;99.50
56322;DHT22;42227;6.376;-10.782;2023-02-18T14:55:25;33.30;99.20
56322;DHT22;42227;6.376;-10.782;2023-02-18T15:00:44;33.50;99.60
56322;DHT22;42227;6.376;-10.782;2023-02-18T15:03:17;33.30;99.90
56322;DHT22;42227;6.376;-10.782;2023-02-18T15:05:48;33.30;99.90
56322;DHT22;42227;6.376;-10.782;2023-02-18T15:08:22;33.30;99.90
56322;DHT22;42227;6.376;-10.782;2023-02-18T15:13:22;33.20;99.00
56322;DHT22;42227;6.376;-10.782;2023-02-18T15:16:36;33.50;99.90
56322;DHT22;42227;6.376;-10.782;2023-02-18T15:18:55;32.90;99.90
56322;DHT22;42227;6.376;-10.782;2023-02-18T15:21:36;33.10;99.90
56322;DHT22;42227;6.376;-10.782;2023-02-18T15:24:15;32.90;99.90
56322;DHT22;42227;6.376;-10.782;2023-02-18T15:26:47;33.30;99.90
56322;DHT22;42227;6.376;-10.782;2023-02-18T15:29:19;33.50;99.90
56322;DHT22;42227;6.376;-10.782;2023-02-18T15:31:49;33.40;99.90
56322;DHT22;42227;6.376;-10.782;2023-02-18T15:34:32;32.90;99.90
56322;DHT22;42227;6.376;-10.782;2023-02-18T15:37:08;32.90;99.90
56322;DHT22;42227;6.376;-10.782;2023-02-18T15:39:41;33.00;99.90
56322;DHT22;42227;6.376;-10.782;2023-02-18T15:44:46;32.90;99.90
56322;DHT22;42227;6.376;-10.782;2023-02-18T15:47:16;32.70;99.90
56322;DHT22;42227;6.376;-10.782;2023-02-18T15:49:49;32.80;99.90
56322;DHT22;42227;6.376;-10.782;2023-02-18T15:52:25;32.80;99.90
56322;DHT22;42227;6.376;-10.782;2023-02-18T15:54:59;32.70;99.90
56322;DHT22;42227;6.376;-10.782;2023-02-18T15:57:29;32.80;99.90
56322;DHT22;42227;6.376;-10.782;2023-02-18T16:00:17;32.80;99.90
56322;DHT22;42227;6.376;-10.782;2023-02-18T16:05:27;33.00;99.90
56322;DHT22;42227;6.376;-10.782;2023-02-18T16:08:03;32.90;99.90
56322;DHT22;42227;6.376;-10.782;2023-02-18T16:13:02;32.50;99.90
56322;DHT22;42227;6.376;-10.782;2023-02-18T16:15:37;32.20;99.90
56322;DHT22;42227;6.376;-10.782;2023-02-18T16:18:16;32.20;99.90
56322;DHT22;42227;6.376;-10.782;2023-02-18T16:20:54;32.20;99.90
56322;DHT22;42227;6.376;-10.782;2023-02-18T16:23:32;32.20;99.90
56322;DHT22;42227;6.376;-10.782;2023-02-18T16:26:19;32.30;99.90
56322;DHT22;42227;6.376;-10.782;2023-02-18T16:28:51;32.40;99.90
56322;DHT22;42227;6.376;-10.782;2023-02-18T16:31:20;32.20;99.90
56322;DHT22;42227;6.376;-10.782;2023-02-18T16:33:49;32.10;99.90
56322;DHT22;42227;6.376;-10.782;2023-02-18T16:36:17;32.20;99.90
56322;DHT22;42227;6.376;-10.782;2023-02-18T16:38:46;32.10;99.90
56322;DHT22;42227;6.376;-10.782;2023-02-18T16:41:15;31.90;99.90
56322;DHT22;42227;6.376;-10.782;2023-02-18T16:43:43;31.60;99.90
56322;DHT22;42227;6.376;-10.782;2023-02-18T16:46:17;31.60;99.90
56322;DHT22;42227;6.376;-10.782;2023-02-18T16:48:52;31.60;99.90
56322;DHT22;42227;6.376;-10.782;2023-02-18T16:51:41;31.50;99.90
56322;DHT22;42227;6.376;-10.782;2023-02-18T16:54:13;31.50;99.90
56322;DHT22;42227;6.376;-10.782;2023-02-18T16:56:42;31.40;99.90
56322;DHT22;42227;6.376;-10.782;2023-02-18T16:59:10;31.30;99.90
56322;DHT22;42227;6.376;-10.782;2023-02-18T17:01:41;31.20;99.90
56322;DHT22;42227;6.376;-10.782;2023-02-18T17:04:13;31.20;99.90
56322;DHT22;42227;6.376;-10.782;2023-02-18T17:06:42;31.10;99.90
56322;DHT22;42227;6.376;-10.782;2023-02-18T17:09:21;31.30;99.90
56322;DHT22;42227;6.376;-10.782;2023-02-18T17:11:51;31.40;99.90
56322;DHT22;42227;6.376;-10.782;2023-02-18T17:14:21;31.10;99.90
56322;DHT22;42227;6.376;-10.782;2023-02-18T17:16:52;31.20;99.90
56322;DHT22;42227;6.376;-10.782;2023-02-18T17:19:21;31.20;99.90
56322;DHT22;42227;6.376;-10.782;2023-02-18T17:21:50;31.10;99.90
56322;DHT22;42227;6.376;-10.782;2023-02-18T17:24:18;31.10;99.90
56322;DHT22;42227;6.376;-10.782;2023-02-18T17:26:46;31.10;99.90
56322;DHT22;42227;6.376;-10.782;2023-02-18T17:29:15;31.00;99.90
56322;DHT22;42227;6.376;-10.782;2023-02-18T17:31:44;30.90;99.90
56322;DHT22;42227;6.376;-10.782;2023-02-18T17:34:19;31.10;99.90
56322;DHT22;42227;6.376;-10.782;2023-02-18T17:36:49;31.10;99.90
56322;DHT22;42227;6.376;-10.782;2023-02-18T17:39:17;30.80;99.90
56322;DHT22;42227;6.376;-10.782;2023-02-18T17:41:46;30.60;99.90
56322;DHT22;42227;6.376;-10.782;2023-02-18T17:44:19;30.60;99.90
56322;DHT22;42227;6.376;-10.782;2023-02-18T17:46:49;30.50;99.90
56322;DHT22;42227;6.376;-10.782;2023-02-18T17:49:17;30.40;99.90
56322;DHT22;42227;6.376;-10.782;2023-02-18T17:51:45;30.40;99.90
56322;DHT22;42227;6.376;-10.782;2023-02-18T17:54:16;30.40;99.90
56322;DHT22;42227;6.376;-10.782;2023-02-18T17:56:45;30.60;99.90
56322;DHT22;42227;6.376;-10.782;2023-02-18T17:59:14;30.50;99.90
56322;DHT22;42227;6.376;-10.782;2023-02-18T18:01:42;30.40;99.90
56322;DHT22;42227;6.376;-10.782;2023-02-18T18:04:16;30.30;99.90
56322;DHT22;42227;6.376;-10.782;2023-02-18T18:06:45;30.40;99.90
56322;DHT22;42227;6.376;-10.782;2023-02-18T18:09:13;30.40;99.90
56322;DHT22;42227;6.376;-10.782;2023-02-18T18:11:42;30.20;99.90
56322;DHT22;42227;6.376;-10.782;2023-02-18T18:14:12;30.20;99.90
56322;DHT22;42227;6.376;-10.782;2023-02-18T18:16:41;30.00;99.90
56322;DHT22;42227;6.376;-10.782;2023-02-18T18:19:09;29.60;99.90
56322;DHT22;42227;6.376;-10.782;2023-02-18T18:21:37;29.50;99.90
56322;DHT22;42227;6.376;-10.782;2023-02-18T18:24:08;29.80;99.90
56322;DHT22;42227;6.376;-10.782;2023-02-18T18:26:38;29.80;99.90